Time;durP1;ratioP1;P1;durP2;ratioP2;P2;SDS_P1;SDS_P2;PMS_P1;PMS_P2;Temp;Humidity;BMP_temperature;BMP_pressure;BME280_temperature;BME280_humidity;BME280_pressure;Samples;Min_cycle;Max_cycle;Signal;HPM_P1;HPM_P2
2022/08/16 00:01:22;;;;;;;0.97;0.97;;;;;;;26.52;43.99;94638.03;5037088;28;20507;-66
2022/08/16 00:03:51;;;;;;;0.77;0.77;;;;;;;26.50;43.37;94644.91;5045077;28;20197;-68
2022/08/16 00:06:19;;;;;;;0.53;0.53;;;;;;;26.51;43.20;94641.09;5060116;28;20196;-61
2022/08/16 00:08:47;;;;;;;1.27;1.20;;;;;;;26.35;43.55;94638.53;5069593;28;20279;-65
2022/08/16 00:11:14;;;;;;;2.23;2.03;;;;;;;26.38;43.32;94629.78;5061294;28;20200;-64
2022/08/16 00:13:46;;;;;;;0.80;0.80;;;;;;;26.52;43.49;94639.94;5039733;28;20197;-68
2022/08/16 00:16:23;;;;;;;1.03;0.93;;;;;;;26.40;43.58;94635.56;5052454;28;20200;-64
2022/08/16 00:19:12;;;;;;;4.70;0.93;;;;;;;26.31;44.82;94640.41;5037257;28;20196;-67
2022/08/16 00:21:41;;;;;;;1.17;1.07;;;;;;;26.25;44.58;94649.91;5062763;28;20200;-69
2022/08/16 00:24:08;;;;;;;2.13;1.87;;;;;;;26.34;43.52;94641.59;5051071;28;20208;-62
2022/08/16 00:26:40;;;;;;;0.30;0.30;;;;;;;26.21;43.55;94638.31;5041601;28;20698;-70
2022/08/16 00:29:13;;;;;;;0.20;0.20;;;;;;;26.47;43.06;94641.03;5053375;28;20214;-66
2022/08/16 00:31:44;;;;;;;2.00;1.20;;;;;;;26.07;43.37;94638.09;5072116;28;20192;-67
2022/08/16 00:34:26;;;;;;;0.77;0.77;;;;;;;25.98;43.54;94645.59;5071236;28;20199;-71
2022/08/16 00:37:14;;;;;;;0.87;0.67;;;;;;;25.76;43.74;94649.81;5073079;28;20202;-67
2022/08/16 00:39:46;;;;;;;2.17;1.33;;;;;;;25.99;43.34;94652.50;5052509;28;20200;-66
2022/08/16 00:42:25;;;;;;;0.67;0.67;;;;;;;26.25;42.62;94643.75;5050389;28;20224;-65
2022/08/16 00:45:07;;;;;;;0.70;0.60;;;;;;;26.33;42.95;94640.81;5037994;28;20211;-64
2022/08/16 00:47:42;;;;;;;0.30;0.30;;;;;;;26.12;43.44;94643.16;5051255;28;20197;-63
2022/08/16 00:50:19;;;;;;;0.90;0.90;;;;;;;25.96;43.23;94647.84;5060493;28;20208;-64
2022/08/16 00:52:46;;;;;;;0.70;0.70;;;;;;;26.01;43.27;94650.22;5059255;28;20204;-67
2022/08/16 00:55:23;;;;;;;0.70;0.70;;;;;;;25.77;43.44;94655.94;5078051;28;20185;-67
2022/08/16 00:57:53;;;;;;;2.17;1.10;;;;;;;26.11;43.07;94663.09;5030222;28;20197;-65
2022/08/16 01:00:32;;;;;;;1.50;1.40;;;;;;;25.89;43.31;94666.53;5050514;28;20314;-70
2022/08/16 01:03:03;;;;;;;0.97;0.97;;;;;;;24.65;45.70;94662.44;5062213;28;20195;-70
2022/08/16 01:05:31;;;;;;;0.57;0.57;;;;;;;25.72;43.97;94670.44;5033402;28;20189;-71
2022/08/16 01:07:59;;;;;;;2.30;1.83;;;;;;;25.78;43.82;94668.25;5031535;28;20573;-69
2022/08/16 01:10:29;;;;;;;1.47;1.37;;;;;;;26.04;43.47;94665.66;5047685;28;20224;-68
2022/08/16 01:13:22;;;;;;;2.63;1.67;;;;;;;25.55;43.80;94664.72;5066366;28;20237;-62
2022/08/16 01:15:57;;;;;;;1.47;1.13;;;;;;;25.50;44.06;94667.69;5069113;28;20200;-66
2022/08/16 01:18:30;;;;;;;0.77;0.77;;;;;;;25.90;43.50;94676.13;5047418;28;20197;-66
2022/08/16 01:21:31;;;;;;;0.40;0.40;;;;;;;25.74;43.79;94675.44;5041718;28;20211;-63
2022/08/16 01:24:24;;;;;;;0.63;0.63;;;;;;;25.93;43.61;94681.53;5070291;28;20591;-67
2022/08/16 01:27:18;;;;;;;0.73;0.67;;;;;;;25.93;43.84;94681.53;5068098;28;20741;-68
2022/08/16 01:30:15;;;;;;;0.47;0.47;;;;;;;25.90;43.68;94679.59;5049112;28;20204;-63
2022/08/16 01:32:53;;;;;;;2.53;1.40;;;;;;;26.06;43.69;94684.88;5039614;28;20208;-60
2022/08/16 01:35:39;;;;;;;2.67;1.33;;;;;;;25.99;44.24;94684.72;5044675;28;20212;-65
2022/08/16 01:38:30;;;;;;;0.40;0.40;;;;;;;25.96;44.10;94680.84;5048900;28;20254;-70
2022/08/16 01:41:05;;;;;;;0.77;0.77;;;;;;;26.15;43.58;94682.72;5047334;28;20243;-67
2022/08/16 01:43:35;;;;;;;1.70;1.53;;;;;;;26.01;43.96;94687.81;5048366;28;20226;-70
2022/08/16 01:46:06;;;;;;;0.50;0.50;;;;;;;26.00;43.84;94692.41;5067440;28;20591;-63
2022/08/16 01:48:57;;;;;;;1.03;0.93;;;;;;;26.01;44.17;94687.81;5067546;28;20208;-69
2022/08/16 01:51:27;;;;;;;1.27;1.17;;;;;;;26.02;44.15;94689.38;5034143;28;20217;-67
2022/08/16 01:53:56;;;;;;;1.80;0.87;;;;;;;25.93;44.36;94686.91;5038105;28;20588;-66
2022/08/16 01:56:29;;;;;;;1.00;0.83;;;;;;;26.04;44.08;94689.81;5034152;28;20212;-66
2022/08/16 01:58:59;;;;;;;0.90;0.90;;;;;;;25.79;44.58;94696.63;5050595;28;20295;-64
2022/08/16 02:01:27;;;;;;;0.63;0.63;;;;;;;25.97;43.94;94686.97;5065662;28;20211;-67
2022/08/16 02:03:56;;;;;;;0.80;0.80;;;;;;;25.82;44.94;94685.19;5053560;28;20643;-65
2022/08/16 02:06:39;;;;;;;0.47;0.47;;;;;;;25.81;44.98;94695.16;5086162;28;20580;-64
2022/08/16 02:09:22;;;;;;;0.73;0.73;;;;;;;25.93;44.93;94707.63;5068868;28;20210;-73
2022/08/16 02:11:57;;;;;;;1.07;1.07;;;;;;;26.00;44.87;94708.53;5040643;28;20208;-69
2022/08/16 02:14:27;;;;;;;0.93;0.93;;;;;;;25.86;45.24;94710.94;5043657;28;20227;-66
2022/08/16 02:17:00;;;;;;;1.53;1.27;;;;;;;25.87;45.18;94719.78;5040349;28;20312;-65
2022/08/16 02:19:30;;;;;;;0.73;0.73;;;;;;;25.77;45.67;94720.34;5039497;28;20837;-65
2022/08/16 02:22:21;;;;;;;0.40;0.40;;;;;;;26.05;45.40;94737.03;5054315;28;20569;-62
2022/08/16 02:25:06;;;;;;;0.73;0.73;;;;;;;25.98;45.78;94740.31;5059446;28;20192;-67
2022/08/16 02:27:39;;;;;;;0.43;0.43;;;;;;;26.13;45.18;94749.44;5077941;28;20210;-64
2022/08/16 02:30:13;;;;;;;1.50;1.40;;;;;;;25.96;46.14;94756.03;5058351;28;20223;-65
2022/08/16 02:33:02;;;;;;;0.77;0.77;;;;;;;25.75;46.73;94760.19;5041486;28;20195;-65
2022/08/16 02:35:31;;;;;;;0.67;0.63;;;;;;;25.56;46.63;94755.63;5067205;28;20230;-66
2022/08/16 02:37:59;;;;;;;0.67;0.67;;;;;;;25.13;47.94;94753.13;5034598;28;20200;-63
2022/08/16 02:40:35;;;;;;;1.17;1.07;;;;;;;24.54;48.83;94755.19;5060309;28;20224;-67
2022/08/16 02:43:03;;;;;;;0.50;0.50;;;;;;;25.15;47.71;94748.19;5049755;28;20741;-66
2022/08/16 02:45:31;;;;;;;1.50;1.40;;;;;;;24.10;50.27;94767.84;5047770;28;20323;-66
2022/08/16 02:47:59;;;;;;;0.60;0.60;;;;;;;24.14;49.75;94763.38;5067744;28;20199;-64
2022/08/16 02:50:46;;;;;;;0.77;0.77;;;;;;;23.93;52.00;94752.06;5043849;28;20224;-65
2022/08/16 02:53:28;;;;;;;0.90;0.90;;;;;;;24.42;51.33;94756.03;5064445;28;20592;-67
2022/08/16 02:55:56;;;;;;;0.77;0.77;;;;;;;24.27;52.45;94756.78;5047776;28;20208;-66
2022/08/16 02:58:25;;;;;;;0.60;0.60;;;;;;;24.32;52.78;94759.25;5061980;28;20196;-67
2022/08/16 03:00:54;;;;;;;0.63;0.63;;;;;;;24.74;51.94;94759.53;5064547;28;20663;-66
2022/08/16 03:03:24;;;;;;;4.37;1.80;;;;;;;24.82;52.14;94751.28;5048073;28;20649;-66
2022/08/16 03:05:52;;;;;;;0.90;0.90;;;;;;;24.57;52.31;94749.91;5058039;28;20209;-66
2022/08/16 03:08:22;;;;;;;0.50;0.50;;;;;;;24.65;52.01;94740.91;5054164;28;20196;-66
2022/08/16 03:11:10;;;;;;;0.77;0.77;;;;;;;24.93;51.48;94741.59;5051619;28;20216;-64
2022/08/16 03:13:46;;;;;;;1.07;1.07;;;;;;;24.78;51.76;94734.34;5051993;28;20299;-65
2022/08/16 03:16:19;;;;;;;3.07;1.67;;;;;;;24.75;52.25;94729.69;5050925;28;20201;-66
2022/08/16 03:19:07;;;;;;;1.00;1.00;;;;;;;24.95;51.39;94717.88;5059069;28;20679;-66
2022/08/16 03:21:35;;;;;;;0.80;0.80;;;;;;;24.77;51.50;94714.03;5057874;28;20253;-65
2022/08/16 03:24:07;;;;;;;0.97;0.97;;;;;;;24.81;51.56;94722.94;5039460;28;20208;-65
2022/08/16 03:26:57;;;;;;;0.90;0.90;;;;;;;24.86;51.12;94717.31;5069061;28;20196;-65
2022/08/16 03:29:28;;;;;;;1.90;1.10;;;;;;;25.09;50.67;94717.41;5034810;28;20197;-65
2022/08/16 03:31:58;;;;;;;0.87;0.87;;;;;;;25.85;49.52;94717.47;5075799;28;20381;-66
2022/08/16 03:34:30;;;;;;;0.53;0.53;;;;;;;25.44;50.39;94717.41;5039546;28;20250;-66
2022/08/16 03:36:57;;;;;;;0.73;0.73;;;;;;;25.34;50.64;94717.94;5069100;28;20196;-65
2022/08/16 03:39:24;;;;;;;1.50;1.40;;;;;;;24.94;51.44;94713.66;5050397;28;20585;-65
2022/08/16 03:41:53;;;;;;;0.67;0.67;;;;;;;24.88;51.71;94723.09;5040483;28;20607;-65
2022/08/16 03:44:27;;;;;;;1.83;1.73;;;;;;;24.80;51.59;94724.06;5059394;28;20199;-64
2022/08/16 03:47:15;;;;;;;0.30;0.30;;;;;;;25.04;51.36;94721.16;5043720;28;20201;-66
2022/08/16 03:49:47;;;;;;;1.03;0.93;;;;;;;24.02;54.55;94731.28;5045835;28;20203;-66
2022/08/16 03:52:20;;;;;;;1.30;1.27;;;;;;;24.42;53.25;94729.25;5045402;28;20209;-66
2022/08/16 03:54:55;;;;;;;0.97;0.87;;;;;;;24.72;52.17;94719.69;5035315;28;20200;-65
2022/08/16 03:57:28;;;;;;;0.70;0.70;;;;;;;24.97;52.00;94723.69;5054822;28;20193;-64
2022/08/16 04:00:11;;;;;;;1.10;1.10;;;;;;;25.34;51.58;94736.72;5035316;28;20217;-66
2022/08/16 04:03:06;;;;;;;1.80;1.20;;;;;;;25.67;51.04;94718.25;5040156;28;20196;-64
2022/08/16 04:05:49;;;;;;;1.43;1.37;;;;;;;25.47;51.75;94708.66;5068177;28;20678;-65
2022/08/16 04:08:20;;;;;;;5.53;1.70;;;;;;;25.50;51.99;94711.41;5055354;28;20261;-65
2022/08/16 04:10:57;;;;;;;1.83;1.33;;;;;;;25.71;51.38;94714.50;5039972;28;20222;-66
2022/08/16 04:13:27;;;;;;;3.00;2.43;;;;;;;25.83;51.07;94724.31;5048044;28;20220;-65
2022/08/16 04:16:16;;;;;;;0.87;0.87;;;;;;;25.63;51.76;94722.78;5046586;28;20189;-66
2022/08/16 04:18:57;;;;;;;2.53;1.23;;;;;;;25.89;51.49;94712.91;5030983;28;20213;-66
2022/08/16 04:21:32;;;;;;;1.30;1.13;;;;;;;25.96;50.91;94723.03;5061302;28;20313;-63
2022/08/16 04:24:01;;;;;;;0.40;0.40;;;;;;;25.71;51.25;94721.78;5059570;28;20204;-65
2022/08/16 04:26:30;;;;;;;1.47;1.37;;;;;;;25.77;51.13;94728.41;5040354;28;20619;-65
2022/08/16 04:29:01;;;;;;;2.27;1.70;;;;;;;25.73;51.01;94716.84;5045723;28;20192;-67
2022/08/16 04:31:50;;;;;;;0.90;0.90;;;;;;;25.62;51.53;94723.91;5067455;28;20228;-66
2022/08/16 04:34:31;;;;;;;1.57;1.43;;;;;;;25.30;52.30;94733.19;5057049;28;20220;-65
2022/08/16 04:37:00;;;;;;;1.30;1.20;;;;;;;25.54;51.57;94738.31;5044140;28;20212;-66
2022/08/16 04:39:32;;;;;;;1.57;1.20;;;;;;;25.39;51.52;94739.16;5055866;28;20208;-67
2022/08/16 04:42:18;;;;;;;3.90;1.13;;;;;;;25.38;51.57;94734.91;5056375;28;20224;-68
2022/08/16 04:44:57;;;;;;;1.17;1.07;;;;;;;25.30;51.74;94733.19;5048708;28;20299;-65
2022/08/16 04:47:30;;;;;;;3.10;1.57;;;;;;;25.38;51.39;94730.34;5049547;28;20668;-67
2022/08/16 04:50:17;;;;;;;0.70;0.70;;;;;;;25.28;51.38;94725.50;5061244;28;20212;-68
2022/08/16 04:52:59;;;;;;;2.30;1.73;;;;;;;25.14;51.63;94724.41;5061252;28;20610;-67
2022/08/16 04:55:30;;;;;;;1.23;1.13;;;;;;;25.21;51.20;94738.75;5037100;28;20204;-68
2022/08/16 04:58:06;;;;;;;0.47;0.47;;;;;;;25.35;50.93;94728.31;5049783;28;20200;-66
2022/08/16 05:00:56;;;;;;;4.87;4.33;;;;;;;25.24;50.85;94713.13;5039487;28;20223;-75
2022/08/16 05:03:23;;;;;;;9.80;6.07;;;;;;;25.25;51.08;94736.94;5066008;28;20266;-71
2022/08/16 05:05:52;;;;;;;3.83;3.47;;;;;;;25.33;51.78;94737.84;5054583;28;20214;-70
2022/08/16 05:08:31;;;;;;;2.13;1.50;;;;;;;25.67;50.72;94747.78;5054273;28;20204;-66
2022/08/16 05:11:23;;;;;;;2.70;2.47;;;;;;;25.25;51.81;94749.56;5037883;28;20248;-71
2022/08/16 05:14:00;;;;;;;12.83;9.23;;;;;;;25.30;52.33;94749.28;5080487;28;20667;-70
2022/08/16 05:16:35;;;;;;;1.93;1.83;;;;;;;25.29;52.72;94742.38;5049839;28;20241;-67
2022/08/16 05:19:07;;;;;;;1.40;1.13;;;;;;;25.28;52.02;94746.16;5065600;28;20249;-67
2022/08/16 05:21:56;;;;;;;1.33;1.27;;;;;;;25.26;51.78;94738.47;5084405;28;20678;-67
2022/08/16 05:24:25;;;;;;;1.07;0.97;;;;;;;25.44;51.08;94754.97;5056025;28;20245;-67
2022/08/16 05:26:53;;;;;;;0.93;0.93;;;;;;;24.90;52.92;94746.88;5056305;28;20682;-69
2022/08/16 05:29:24;;;;;;;1.23;1.13;;;;;;;24.90;52.37;94753.00;5066051;28;20214;-67
2022/08/16 05:32:16;;;;;;;0.47;0.47;;;;;;;25.08;52.07;94764.91;5048707;28;20357;-71
2022/08/16 05:35:07;;;;;;;0.80;0.80;;;;;;;25.41;51.59;94744.94;5065689;28;20271;-69
2022/08/16 05:37:42;;;;;;;0.83;0.83;;;;;;;25.57;51.06;94753.69;5065569;28;20235;-67
2022/08/16 05:40:13;;;;;;;0.40;0.40;;;;;;;25.41;52.73;94755.66;5058983;28;20196;-68
2022/08/16 05:42:42;;;;;;;0.60;0.60;;;;;;;25.66;51.21;94743.53;5039072;28;20315;-69
2022/08/16 05:45:17;;;;;;;0.67;0.67;;;;;;;25.58;52.14;94744.53;5058216;28;20195;-66
2022/08/16 05:47:50;;;;;;;2.17;1.00;;;;;;;25.71;51.29;94751.31;5066574;28;20678;-67
2022/08/16 05:50:32;;;;;;;0.67;0.67;;;;;;;25.53;53.18;94750.94;5055042;28;20287;-66
2022/08/16 05:53:02;;;;;;;1.20;1.10;;;;;;;25.25;53.92;94747.66;5056944;28;20215;-65
2022/08/16 05:55:35;;;;;;;1.47;1.37;;;;;;;24.89;56.25;94751.44;5049202;28;20616;-66
2022/08/16 05:58:07;;;;;;;1.30;1.20;;;;;;;25.33;54.76;94745.91;5054669;28;20630;-66
2022/08/16 06:00:54;;;;;;;0.83;0.83;;;;;;;25.52;55.25;94745.94;5068899;28;20224;-66
2022/08/16 06:03:23;;;;;;;4.37;1.00;;;;;;;25.32;55.13;94747.03;5054212;28;20201;-67
2022/08/16 06:06:00;;;;;;;0.83;0.83;;;;;;;25.45;54.35;94741.22;5085652;28;20650;-64
2022/08/16 06:08:31;;;;;;;2.23;1.30;;;;;;;25.05;55.02;94746.06;5040373;28;20291;-65
2022/08/16 06:11:13;;;;;;;1.37;1.27;;;;;;;25.80;53.40;94757.25;5057468;28;20215;-65
2022/08/16 06:13:47;;;;;;;2.57;1.87;;;;;;;25.80;51.95;94749.19;5040722;28;20236;-66
2022/08/16 06:16:21;;;;;;;0.83;0.83;;;;;;;25.68;52.67;94744.75;5051216;28;20197;-66
2022/08/16 06:18:53;;;;;;;0.90;0.90;;;;;;;26.03;51.77;94744.63;5056896;28;20200;-67
2022/08/16 06:21:21;;;;;;;3.00;2.73;;;;;;;26.06;50.93;94752.00;5037107;28;20215;-65
2022/08/16 06:23:56;;;;;;;1.17;1.07;;;;;;;26.04;50.62;94746.19;5049911;28;20211;-66
2022/08/16 06:26:28;;;;;;;1.50;1.40;;;;;;;25.71;54.19;94748.63;5068679;28;20605;-65
2022/08/16 06:29:07;;;;;;;1.40;1.30;;;;;;;26.14;52.43;94739.47;5068673;28;20203;-65
2022/08/16 06:31:37;;;;;;;0.63;0.63;;;;;;;26.25;50.80;94741.22;5069037;28;20246;-65
2022/08/16 06:34:16;;;;;;;0.83;0.83;;;;;;;26.35;50.67;94735.25;5068529;28;20206;-66
2022/08/16 06:37:05;;;;;;;1.73;1.63;;;;;;;26.23;49.43;94731.97;5057765;28;20616;-67
2022/08/16 06:39:35;;;;;;;0.90;0.90;;;;;;;26.34;48.91;94722.97;5063329;28;20196;-65
2022/08/16 06:42:22;;;;;;;1.60;1.13;;;;;;;26.85;49.25;94724.19;5068334;28;20231;-66
2022/08/16 06:45:16;;;;;;;0.77;0.77;;;;;;;26.85;48.70;94737.63;5051147;28;20259;-66
2022/08/16 06:47:57;;;;;;;0.80;0.80;;;;;;;26.54;50.25;94735.19;5051421;28;20203;-65
2022/08/16 06:50:26;;;;;;;0.53;0.53;;;;;;;26.59;48.62;94724.13;5051035;28;20243;-66
2022/08/16 06:53:00;;;;;;;0.97;0.97;;;;;;;26.25;49.69;94738.53;5059358;28;20245;-67
2022/08/16 06:55:39;;;;;;;1.47;1.37;;;;;;;26.61;49.46;94738.00;5053130;28;20196;-67
2022/08/16 06:58:10;;;;;;;0.90;0.90;;;;;;;26.74;50.68;94715.19;5055411;28;20838;-66
2022/08/16 07:00:56;;;;;;;1.37;1.27;;;;;;;26.69;50.71;94723.56;5052992;28;20678;-66
2022/08/16 07:03:28;;;;;;;0.87;0.87;;;;;;;26.79;48.49;94711.41;5035175;28;20216;-66
2022/08/16 07:06:02;;;;;;;2.60;1.93;;;;;;;26.75;49.20;94705.97;5068236;28;20219;-67
2022/08/16 07:08:33;;;;;;;1.73;1.63;;;;;;;26.48;48.10;94707.06;5067278;28;20202;-66
2022/08/16 07:11:03;;;;;;;0.83;0.80;;;;;;;26.54;49.21;94692.19;5055720;28;20215;-67
2022/08/16 07:13:34;;;;;;;1.77;1.40;;;;;;;26.70;48.93;94700.91;5054072;28;20549;-66
2022/08/16 07:16:24;;;;;;;3.93;2.63;;;;;;;27.38;48.39;94705.31;5057051;28;20199;-65
2022/08/16 07:18:56;;;;;;;1.50;1.40;;;;;;;27.57;47.58;94702.50;5053820;28;20299;-67
2022/08/16 07:21:29;;;;;;;3.20;2.73;;;;;;;27.10;50.01;94704.94;5054229;28;20693;-67
2022/08/16 07:24:17;;;;;;;1.60;1.50;;;;;;;27.27;49.69;94699.00;5054504;28;20216;-66
2022/08/16 07:27:01;;;;;;;1.40;0.57;;;;;;;27.54;48.61;94692.44;5046686;28;20204;-67
2022/08/16 07:29:29;;;;;;;1.40;1.30;;;;;;;27.49;47.46;94690.09;5070094;28;20200;-65
2022/08/16 07:31:59;;;;;;;1.03;1.00;;;;;;;27.55;47.13;94685.94;5071777;28;20228;-66
2022/08/16 07:34:30;;;;;;;0.90;0.80;;;;;;;28.24;44.69;94692.44;5063181;28;20228;-66
2022/08/16 07:37:09;;;;;;;2.83;1.60;;;;;;;28.21;45.76;94690.50;5054272;28;20661;-66
2022/08/16 07:40:03;;;;;;;1.10;1.00;;;;;;;28.61;45.94;94695.88;5048550;28;20212;-66
2022/08/16 07:42:38;;;;;;;3.10;1.87;;;;;;;29.02;45.81;94683.03;5060806;28;20259;-65
2022/08/16 07:45:08;;;;;;;3.03;2.20;;;;;;;28.46;46.33;94684.19;5059615;28;20287;-66
2022/08/16 07:47:41;;;;;;;1.37;1.27;;;;;;;28.60;46.93;94692.38;5087604;28;20196;-66
2022/08/16 07:50:13;;;;;;;0.90;0.90;;;;;;;28.65;43.94;94689.34;5052436;28;20663;-66
2022/08/16 07:53:00;;;;;;;1.43;0.93;;;;;;;29.08;43.62;94697.72;5063505;28;20231;-64
2022/08/16 07:55:29;;;;;;;0.70;0.70;;;;;;;28.81;44.26;94689.84;5039344;28;20701;-66
2022/08/16 07:58:21;;;;;;;1.93;1.47;;;;;;;29.38;43.29;94690.19;5066043;28;20219;-65
2022/08/16 08:01:05;;;;;;;0.93;0.93;;;;;;;28.95;44.08;94694.56;5062220;28;20211;-66
2022/08/16 08:03:40;;;;;;;1.03;0.97;;;;;;;28.49;44.75;94694.19;5067312;28;20204;-68
2022/08/16 08:06:21;;;;;;;5.43;2.23;;;;;;;29.05;43.04;94693.84;5071151;28;20282;-66
2022/08/16 08:08:52;;;;;;;2.13;1.30;;;;;;;29.19;42.45;94695.88;5071172;28;20300;-64
2022/08/16 08:11:28;;;;;;;2.17;2.03;;;;;;;29.51;42.51;94694.88;5071256;28;20219;-66
2022/08/16 08:13:59;;;;;;;0.83;0.83;;;;;;;29.43;43.29;94692.53;5051818;28;20258;-66
2022/08/16 08:16:34;;;;;;;0.93;0.93;;;;;;;30.17;41.67;94688.13;5050826;28;20984;-64
2022/08/16 08:19:03;;;;;;;3.80;1.90;;;;;;;29.81;42.94;94697.31;5078959;28;20647;-65
2022/08/16 08:21:33;;;;;;;2.00;1.13;;;;;;;30.26;42.77;94693.19;5042174;28;20211;-65
2022/08/16 08:24:29;;;;;;;1.00;1.00;;;;;;;30.11;42.11;94684.25;5061546;28;20190;-64
2022/08/16 08:27:03;;;;;;;0.70;0.70;;;;;;;30.64;40.76;94687.00;5055172;28;20592;-65
2022/08/16 08:29:35;;;;;;;1.60;1.50;;;;;;;30.69;40.85;94682.00;5087705;28;20234;-65
2022/08/16 08:32:08;;;;;;;2.10;1.20;;;;;;;30.77;38.92;94670.00;5054538;28;20277;-64
2022/08/16 08:35:01;;;;;;;1.47;1.37;;;;;;;30.93;40.74;94675.03;5035689;28;20203;-65
2022/08/16 08:37:33;;;;;;;2.50;1.87;;;;;;;31.09;39.84;94677.34;5061707;28;20214;-65
2022/08/16 08:40:22;;;;;;;0.57;0.57;;;;;;;30.97;37.95;94685.88;5052397;28;20211;-65
2022/08/16 08:42:59;;;;;;;1.57;1.23;;;;;;;31.35;35.22;94682.28;5069103;28;20326;-64
2022/08/16 08:45:50;;;;;;;1.00;0.87;;;;;;;30.88;36.17;94680.09;5053568;28;20209;-64
2022/08/16 08:48:20;;;;;;;1.07;1.07;;;;;;;30.55;36.74;94684.72;5043083;28;20200;-64
2022/08/16 08:51:12;;;;;;;1.37;1.20;;;;;;;31.47;37.35;94681.88;5040410;28;20205;-64
2022/08/16 08:53:49;;;;;;;0.30;0.30;;;;;;;31.53;33.84;94674.91;5062017;28;20193;-63
2022/08/16 08:56:31;;;;;;;1.37;1.27;;;;;;;31.49;34.63;94653.25;5050254;28;20208;-64
2022/08/16 08:59:31;;;;;;;0.37;0.37;;;;;;;30.88;35.08;94678.91;5031229;28;20211;-64
2022/08/16 09:01:58;;;;;;;0.73;0.67;;;;;;;30.45;35.05;94676.59;5060911;28;20300;-65
2022/08/16 09:04:30;;;;;;;0.87;0.87;;;;;;;31.38;34.27;94668.00;5048814;28;20206;-63
2022/08/16 09:06:59;;;;;;;1.80;1.10;;;;;;;31.88;34.85;94669.28;5069956;28;20589;-65
2022/08/16 09:09:31;;;;;;;1.07;1.07;;;;;;;32.06;32.32;94675.44;5053166;28;20199;-64
2022/08/16 09:12:07;;;;;;;0.50;0.50;;;;;;;32.17;33.19;94665.25;5061470;28;20227;-64
2022/08/16 09:15:02;;;;;;;0.87;0.80;;;;;;;32.61;31.80;94673.47;5069669;28;20198;-65
2022/08/16 09:17:31;;;;;;;0.47;0.47;;;;;;;32.54;32.79;94678.97;5069895;28;20253;-63
2022/08/16 09:20:17;;;;;;;0.37;0.37;;;;;;;33.05;31.37;94677.38;5043108;28;20232;-64
2022/08/16 09:22:46;;;;;;;0.90;0.90;;;;;;;32.61;30.79;94673.47;5063464;28;20291;-65
2022/08/16 09:25:24;;;;;;;0.57;0.57;;;;;;;33.02;30.22;94680.88;5049755;28;20198;-64
2022/08/16 09:28:01;;;;;;;0.47;0.47;;;;;;;33.34;30.07;94684.06;5050035;28;20296;-64
2022/08/16 09:30:41;;;;;;;0.83;0.83;;;;;;;33.37;31.69;94678.59;5060302;28;20637;-65
2022/08/16 09:33:17;;;;;;;0.93;0.93;;;;;;;32.97;30.23;94678.63;5038816;28;20228;-64
2022/08/16 09:35:47;;;;;;;0.80;0.80;;;;;;;33.22;29.63;94669.03;5049724;28;20658;-65
2022/08/16 09:38:21;;;;;;;3.90;0.83;;;;;;;32.71;30.00;94672.63;5046468;28;20231;-66
2022/08/16 09:40:57;;;;;;;1.40;0.90;;;;;;;32.92;30.25;94676.31;5042384;28;20197;-65
2022/08/16 09:43:24;;;;;;;1.23;1.20;;;;;;;32.66;30.46;94664.91;5055103;28;20200;-64
2022/08/16 09:46:11;;;;;;;1.10;1.00;;;;;;;32.94;31.67;94660.44;5030390;28;20193;-66
2022/08/16 09:48:59;;;;;;;0.87;0.80;;;;;;;33.32;30.63;94667.41;5053651;28;20199;-65
2022/08/16 09:51:30;;;;;;;0.40;0.40;;;;;;;33.83;29.66;94672.63;5041219;28;20643;-65
2022/08/16 09:54:04;;;;;;;1.13;0.90;;;;;;;34.10;29.26;94670.72;5049570;28;20225;-64
2022/08/16 09:56:34;;;;;;;0.40;0.40;;;;;;;34.54;29.60;94662.25;5033509;28;20553;-65
2022/08/16 09:59:03;;;;;;;0.60;0.60;;;;;;;34.71;30.50;94669.38;5042659;28;20296;-64
2022/08/16 10:01:35;;;;;;;2.73;1.20;;;;;;;34.44;29.73;94665.94;5057265;28;20291;-64
2022/08/16 10:04:03;;;;;;;0.60;0.60;;;;;;;35.01;29.55;94663.06;5069846;28;20211;-65
2022/08/16 10:06:55;;;;;;;0.50;0.50;;;;;;;34.87;29.72;94671.47;5068507;28;20585;-64
2022/08/16 10:09:24;;;;;;;0.70;0.63;;;;;;;34.43;28.04;94664.38;5062728;28;20204;-66
2022/08/16 10:14:56;;;;;;;1.00;0.80;;;;;;;33.98;28.88;94673.22;5058771;28;20200;-64
2022/08/16 10:17:24;;;;;;;0.73;0.73;;;;;;;34.08;28.14;94670.34;5067629;28;20722;-65
2022/08/16 10:19:52;;;;;;;0.73;0.73;;;;;;;34.43;28.51;94663.59;5070066;28;20215;-65
2022/08/16 10:22:18;;;;;;;1.80;1.27;;;;;;;34.01;27.58;94664.22;5051999;28;20188;-66
2022/08/16 10:24:49;;;;;;;0.47;0.47;;;;;;;33.53;28.35;94664.44;5047515;28;20242;-65
2022/08/16 10:27:26;;;;;;;0.47;0.47;;;;;;;34.09;27.64;94654.81;5053459;28;20230;-63
2022/08/16 10:30:14;;;;;;;0.43;0.43;;;;;;;34.33;27.00;94648.97;5061114;28;20963;-64
2022/08/16 10:32:55;;;;;;;0.40;0.40;;;;;;;34.83;27.40;94659.06;5058989;28;20637;-66
2022/08/16 10:35:23;;;;;;;2.20;1.13;;;;;;;34.96;28.32;94654.59;5052957;28;20574;-65
2022/08/16 10:37:59;;;;;;;0.87;0.60;;;;;;;35.13;26.90;94656.97;5041789;28;20203;-65
2022/08/16 10:40:26;;;;;;;0.70;0.70;;;;;;;35.42;26.08;94660.72;5069862;28;20196;-65
2022/08/16 10:43:00;;;;;;;0.80;0.80;;;;;;;35.10;27.80;94662.50;5050033;28;20239;-66
2022/08/16 10:45:29;;;;;;;0.77;0.77;;;;;;;35.37;26.26;94660.41;5059955;28;20290;-64
2022/08/16 10:48:05;;;;;;;1.20;1.10;;;;;;;35.53;26.67;94646.88;5041496;28;20248;-65
2022/08/16 10:50:56;;;;;;;0.87;0.87;;;;;;;33.67;27.06;94650.66;5044049;28;20213;-65
2022/08/16 10:53:26;;;;;;;0.30;0.30;;;;;;;33.77;27.77;94666.09;5057870;28;20268;-64
2022/08/16 10:56:06;;;;;;;0.70;0.70;;;;;;;32.99;28.44;94668.13;5035700;28;20201;-64
2022/08/16 10:58:57;;;;;;;0.47;0.47;;;;;;;33.28;27.26;94662.00;5048931;28;20208;-62
2022/08/16 11:01:44;;;;;;;0.73;0.73;;;;;;;33.11;27.74;94662.19;5063286;28;20199;-63
2022/08/16 11:04:31;;;;;;;0.73;0.73;;;;;;;33.86;27.51;94662.84;5058691;28;20195;-63
2022/08/16 11:07:18;;;;;;;6.03;1.07;;;;;;;33.69;26.53;94664.63;5041136;28;20611;-63
2022/08/16 11:10:05;;;;;;;0.37;0.37;;;;;;;33.95;26.33;94665.84;5069490;28;20191;-63
2022/08/16 11:12:52;;;;;;;7.83;1.63;;;;;;;35.05;25.59;94661.03;5046200;28;20323;-65
2022/08/16 11:15:20;;;;;;;0.67;0.67;;;;;;;34.52;25.50;94656.50;5055418;28;20184;-63
2022/08/16 11:17:52;;;;;;;2.27;0.90;;;;;;;35.39;25.47;94647.16;5055344;28;20193;-64
2022/08/16 11:20:41;;;;;;;1.83;1.10;;;;;;;35.52;24.80;94639.91;5062037;28;20218;-63
2022/08/16 11:23:16;;;;;;;0.37;0.37;;;;;;;35.90;25.30;94643.78;5058456;28;20754;-63
2022/08/16 11:25:42;;;;;;;0.90;0.90;;;;;;;35.83;26.01;94643.91;5060864;28;20187;-63
2022/08/16 11:28:31;;;;;;;2.33;0.90;;;;;;;35.50;25.45;94642.28;5040151;28;20292;-63
2022/08/16 11:31:18;;;;;;;1.13;1.03;;;;;;;35.63;25.09;94645.91;5055226;28;20300;-63
2022/08/16 11:33:47;;;;;;;1.17;0.93;;;;;;;35.69;24.82;94633.34;5057162;28;20221;-63
2022/08/16 11:36:22;;;;;;;0.53;0.53;;;;;;;35.66;24.50;94628.69;5057698;28;20278;-63
2022/08/16 11:39:01;;;;;;;0.83;0.83;;;;;;;35.41;25.84;94648.28;5054311;28;20752;-65
2022/08/16 11:41:32;;;;;;;0.53;0.53;;;;;;;34.97;27.56;94650.69;5063253;28;20259;-63
2022/08/16 11:43:59;;;;;;;0.50;0.50;;;;;;;33.68;28.29;94652.22;5049399;28;20208;-66
2022/08/16 11:46:27;;;;;;;1.13;0.83;;;;;;;33.10;28.51;94644.38;5053543;28;20195;-65
2022/08/16 11:49:11;;;;;;;0.60;0.60;;;;;;;32.57;32.01;94667.31;5055747;28;20205;-64
2022/08/16 11:51:42;;;;;;;0.63;0.60;;;;;;;33.39;31.53;94684.38;5038857;28;20219;-65
2022/08/16 11:54:11;;;;;;;0.60;0.60;;;;;;;32.46;35.34;94677.47;5069186;28;20222;-69
2022/08/16 11:56:50;;;;;;;5.40;1.17;;;;;;;32.51;36.14;94695.28;5035281;28;20197;-67
2022/08/16 11:59:26;;;;;;;1.03;0.90;;;;;;;30.43;37.65;94765.44;5039617;28;20566;-67
2022/08/16 12:01:56;;;;;;;0.30;0.30;;;;;;;30.21;40.60;94721.34;5045295;28;20234;-67
2022/08/16 12:04:26;;;;;;;0.77;0.77;;;;;;;30.66;39.62;94692.81;5044114;28;20232;-67
2022/08/16 12:06:53;;;;;;;0.50;0.50;;;;;;;30.85;40.18;94695.16;5061266;28;20241;-70
2022/08/16 12:09:22;;;;;;;0.40;0.40;;;;;;;30.64;42.05;94690.50;5052366;28;20219;-69
2022/08/16 12:11:51;;;;;;;0.90;0.90;;;;;;;31.01;41.18;94662.25;5052536;28;20646;-69
2022/08/16 12:14:19;;;;;;;0.40;0.40;;;;;;;31.13;40.02;94654.50;5032519;28;20228;-68
2022/08/16 12:16:53;;;;;;;0.47;0.47;;;;;;;31.17;37.88;94654.50;5057748;28;20191;-68
2022/08/16 12:19:24;;;;;;;1.13;0.70;;;;;;;31.55;38.80;94635.41;5046730;28;20190;-73